Juan De La Cosa — ECJE — position and weather

sailwx.info

Track history (hours):
 
Tides and Currents Weather Stations Pressure Air Temp Water Temp Dewpoint Dewpoint Depression Visibility Wind Speed Wind Dir Waves Ship Positions

Juan De La Cosa

Last reported at 2014-Sep-18 12:28 UTC. Time now 2014-Sep-20 18:06 UTC.
Position N 51°31' W 010°15'.

Length 75 m; draft 4.5 m.

Type: Medical transport. MMSI: 224612000.

Date/timePositionNaut miles runAvg speedWind from/ knotsBaromVisibWave heightAir tempDewpointWater temp
2014-Sep-18 12:28N 51°31' W 010°15'7 7.7
2014-Sep-18 11:33N 51°33' W 010°04'6 6.3
2014-Sep-18 10:34N 51°36' W 009°56'0 0.4
2014-Sep-18 09:34N 51°35' W 009°56'0 0.3
2014-Sep-18 08:33N 51°35' W 009°56'3 2.7
2014-Sep-18 07:33N 51°33' W 009°59'7 6.7
2014-Sep-18 06:33N 51°32' W 010°09'8 8.2
2014-Sep-18 05:33N 51°32' W 010°22'28 9.1
2014-Sep-18 02:32N 51°49' W 010°57'17 8.6
2014-Sep-18 00:31N 52°00' W 011°19'8 8.5
2014-Sep-17 23:33N 52°06' W 011°29'9 8.5
2014-Sep-17 22:31N 52°11' W 011°40'  
2014-Sep-15 04:22N 53°51' W 013°58'  
Track history (hours):
 
Tides and Currents Weather Stations Pressure Air Temp Water Temp Dewpoint Dewpoint Depression Visibility Wind Speed Wind Dir Waves Ship Positions

Juan De La Cosa

Last reported at 2014-Sep-18 12:28 UTC. Time now 2014-Sep-20 18:06 UTC.
Position N 51°31' W 010°15'.

Length 75 m; draft 4.5 m.

Type: Medical transport. MMSI: 224612000.

Date/timePositionNaut miles runAvg speedWind from/ knotsBaromVisibWave heightAir tempDewpointWater temp
2014-Sep-18 12:28N 51°31' W 010°15'7 7.7
2014-Sep-18 11:33N 51°33' W 010°04'6 6.3
2014-Sep-18 10:34N 51°36' W 009°56'0 0.4
2014-Sep-18 09:34N 51°35' W 009°56'0 0.3
2014-Sep-18 08:33N 51°35' W 009°56'3 2.7
2014-Sep-18 07:33N 51°33' W 009°59'7 6.7
2014-Sep-18 06:33N 51°32' W 010°09'8 8.2
2014-Sep-18 05:33N 51°32' W 010°22'28 9.1
2014-Sep-18 02:32N 51°49' W 010°57'17 8.6
2014-Sep-18 00:31N 52°00' W 011°19'8 8.5
2014-Sep-17 23:33N 52°06' W 011°29'9 8.5
2014-Sep-17 22:31N 52°11' W 011°40'  
2014-Sep-15 04:22N 53°51' W 013°58'  

Dump ship's entire track history